Time;durP1;ratioP1;P1;durP2;ratioP2;P2;SDS_P1;SDS_P2;PMS_P1;PMS_P2;Temp;Humidity;BMP_temperature;BMP_pressure;BME280_temperature;BME280_humidity;BME280_pressure;Samples;Min_cycle;Max_cycle;Signal;HPM_P1;HPM_P2
2023/07/21 00:00:12;;;;;;;3.73;2.67;;;;;;;;;;5133871;27;20467;-68
2023/07/21 00:02:41;;;;;;;6.43;3.00;;;;;;;;;;5134299;27;20512;-68
2023/07/21 00:05:10;;;;;;;3.67;2.50;;;;;;;;;;5133492;27;20457;-68
2023/07/21 00:07:37;;;;;;;2.67;2.47;;;;;;;;;;5133587;27;20446;-68
2023/07/21 00:10:07;;;;;;;5.17;2.70;;;;;;;;;;5136268;27;20440;-68
2023/07/21 00:12:34;;;;;;;3.00;2.47;;;;;;;;;;5138083;27;20476;-68
2023/07/21 00:15:02;;;;;;;3.73;2.70;;;;;;;;;;5137539;27;20445;-68
2023/07/21 00:17:30;;;;;;;3.73;2.60;;;;;;;;;;5137317;27;20472;-67
2023/07/21 00:19:58;;;;;;;2.40;2.20;;;;;;;;;;5137889;27;20804;-67
2023/07/21 00:22:28;;;;;;;6.40;3.27;;;;;;;;;;5137635;27;20455;-67
2023/07/21 00:24:55;;;;;;;2.67;2.47;;;;;;;;;;5137482;27;20503;-68
2023/07/21 00:27:22;;;;;;;3.90;3.03;;;;;;;;;;5137588;27;20446;-67
2023/07/21 00:29:50;;;;;;;4.33;2.87;;;;;;;;;;5137161;27;20457;-67
2023/07/21 00:32:18;;;;;;;3.97;2.90;;;;;;;;;;5137327;27;20528;-67
2023/07/21 00:34:46;;;;;;;3.80;2.40;;;;;;;;;;5137399;27;20528;-67
2023/07/21 00:37:14;;;;;;;2.83;2.63;;;;;;;;;;5137333;27;20459;-67
2023/07/21 00:39:44;;;;;;;2.67;2.47;;;;;;;;;;5137350;27;20497;-67
2023/07/21 00:42:11;;;;;;;3.10;2.90;;;;;;;;;;5137086;27;20951;-68
2023/07/21 00:44:39;;;;;;;4.37;3.77;;;;;;;;;;5137438;27;20801;-68
2023/07/21 00:47:06;;;;;;;3.57;2.30;;;;;;;;;;5137283;27;20440;-68
2023/07/21 00:49:36;;;;;;;3.10;2.90;;;;;;;;;;5137117;27;20520;-68
2023/07/21 00:52:03;;;;;;;2.67;2.47;;;;;;;;;;5136632;27;20987;-68
2023/07/21 00:54:31;;;;;;;4.70;2.67;;;;;;;;;;5136628;27;20995;-68
2023/07/21 00:56:59;;;;;;;3.07;2.87;;;;;;;;;;5136478;27;20477;-67
2023/07/21 00:59:26;;;;;;;3.10;2.83;;;;;;;;;;5137043;27;20477;-68
2023/07/21 01:01:54;;;;;;;3.10;2.90;;;;;;;;;;5136951;27;20451;-68
2023/07/21 01:04:22;;;;;;;3.23;2.67;;;;;;;;;;5136491;27;20945;-68
2023/07/21 01:06:49;;;;;;;2.73;2.53;;;;;;;;;;5136965;27;20436;-67
2023/07/21 01:09:18;;;;;;;5.00;2.40;;;;;;;;;;5136906;27;20547;-67
2023/07/21 01:11:46;;;;;;;3.13;2.83;;;;;;;;;;5136287;27;20441;-68
2023/07/21 01:14:15;;;;;;;4.23;3.07;;;;;;;;;;5136233;27;20480;-68
2023/07/21 01:16:43;;;;;;;3.07;2.87;;;;;;;;;;5136814;27;20474;-67
2023/07/21 01:19:13;;;;;;;2.90;2.70;;;;;;;;;;5136275;27;20957;-67
2023/07/21 01:21:43;;;;;;;2.73;2.53;;;;;;;;;;5135625;27;20433;-67
2023/07/21 01:24:14;;;;;;;4.13;3.20;;;;;;;;;;5136243;27;20422;-67
2023/07/21 01:26:43;;;;;;;4.93;3.23;;;;;;;;;;5136777;27;20441;-67
2023/07/21 01:29:11;;;;;;;5.30;3.30;;;;;;;;;;5136635;27;20447;-67
2023/07/21 01:31:38;;;;;;;4.77;3.30;;;;;;;;;;5136115;27;20434;-68
2023/07/21 01:34:06;;;;;;;5.50;3.30;;;;;;;;;;5136343;27;21009;-67
2023/07/21 01:36:33;;;;;;;5.47;3.03;;;;;;;;;;5136185;27;20833;-67
2023/07/21 01:39:00;;;;;;;3.53;3.23;;;;;;;;;;5135937;27;21035;-68
2023/07/21 01:41:28;;;;;;;4.60;3.60;;;;;;;;;;5135861;27;20439;-67
2023/07/21 01:43:57;;;;;;;6.00;3.57;;;;;;;;;;5136233;27;20529;-67
2023/07/21 01:46:24;;;;;;;5.13;3.80;;;;;;;;;;5136683;27;20808;-68
2023/07/21 01:48:51;;;;;;;3.93;3.53;;;;;;;;;;5136193;27;20514;-67
2023/07/21 01:51:19;;;;;;;4.20;3.73;;;;;;;;;;5136159;27;20442;-68
2023/07/21 01:53:50;;;;;;;4.73;4.33;;;;;;;;;;5136273;27;20514;-68
2023/07/21 01:56:21;;;;;;;4.57;4.27;;;;;;;;;;5136033;27;20508;-68
2023/07/21 01:58:49;;;;;;;4.97;4.50;;;;;;;;;;5135710;27;20920;-68
2023/07/21 02:01:17;;;;;;;4.60;4.13;;;;;;;;;;5135930;27;20437;-67
2023/07/21 02:03:46;;;;;;;5.10;4.70;;;;;;;;;;5135891;27;20472;-67
2023/07/21 02:06:14;;;;;;;5.53;4.33;;;;;;;;;;5135732;27;20445;-68
2023/07/21 02:08:41;;;;;;;4.93;4.53;;;;;;;;;;5135923;27;20438;-67
2023/07/21 02:11:09;;;;;;;6.20;5.60;;;;;;;;;;5136142;27;20432;-67
2023/07/21 02:13:36;;;;;;;6.43;4.40;;;;;;;;;;5135488;27;20473;-67
2023/07/21 02:16:03;;;;;;;5.40;4.93;;;;;;;;;;5135702;27;20444;-67
2023/07/21 02:18:34;;;;;;;7.17;5.53;;;;;;;;;;5135428;27;20949;-67
2023/07/21 02:21:03;;;;;;;6.20;5.70;;;;;;;;;;5135308;27;20932;-67
2023/07/21 02:23:31;;;;;;;6.00;5.10;;;;;;;;;;5135099;27;20484;-68
2023/07/21 02:25:58;;;;;;;5.90;5.23;;;;;;;;;;5135983;27;20443;-67
2023/07/21 02:28:25;;;;;;;6.13;5.53;;;;;;;;;;5134830;27;20451;-67
2023/07/21 02:31:03;;;;;;;6.87;6.27;;;;;;;;;;5135698;27;20438;-67
2023/07/21 02:33:30;;;;;;;7.10;6.50;;;;;;;;;;5134942;27;20473;-68
2023/07/21 02:35:59;;;;;;;8.20;6.90;;;;;;;;;;5134965;27;20480;-67
2023/07/21 02:38:26;;;;;;;7.47;6.87;;;;;;;;;;5135058;27;20527;-67
2023/07/21 02:40:54;;;;;;;7.10;6.57;;;;;;;;;;5135114;27;20448;-67
2023/07/21 02:43:22;;;;;;;6.57;5.97;;;;;;;;;;5134951;27;20440;-67
2023/07/21 02:45:50;;;;;;;7.47;6.73;;;;;;;;;;5134759;27;20441;-67
2023/07/21 02:48:18;;;;;;;7.10;6.50;;;;;;;;;;5134911;27;20440;-68
2023/07/21 02:50:46;;;;;;;7.43;6.47;;;;;;;;;;5135279;27;20443;-67
2023/07/21 02:53:14;;;;;;;8.27;7.60;;;;;;;;;;5134739;27;20473;-67
2023/07/21 02:55:41;;;;;;;8.30;6.63;;;;;;;;;;5134821;27;20473;-67
2023/07/21 02:58:09;;;;;;;7.77;7.07;;;;;;;;;;5134517;27;20455;-68
2023/07/21 03:00:36;;;;;;;7.93;7.00;;;;;;;;;;5134660;27;20468;-68
2023/07/21 03:03:03;;;;;;;8.87;7.23;;;;;;;;;;5134632;27;20448;-67
2023/07/21 03:05:31;;;;;;;8.47;7.70;;;;;;;;;;5135133;27;20434;-68
2023/07/21 03:07:58;;;;;;;9.30;7.33;;;;;;;;;;5134549;27;20443;-67
2023/07/21 03:10:27;;;;;;;8.23;7.53;;;;;;;;;;5134533;27;20459;-67
2023/07/21 03:12:54;;;;;;;8.67;7.97;;;;;;;;;;5134697;27;20451;-68
2023/07/21 03:15:21;;;;;;;8.23;7.43;;;;;;;;;;5134498;27;20440;-68
2023/07/21 03:17:49;;;;;;;10.30;7.53;;;;;;;;;;5134399;27;20440;-68
2023/07/21 03:20:16;;;;;;;10.57;8.87;;;;;;;;;;5134164;27;20923;-67
2023/07/21 03:22:43;;;;;;;8.97;8.10;;;;;;;;;;5134681;27;20470;-68
2023/07/21 03:25:11;;;;;;;8.37;7.67;;;;;;;;;;5134357;27;20438;-68
2023/07/21 03:27:39;;;;;;;11.23;9.23;;;;;;;;;;5134320;27;20739;-68
2023/07/21 03:30:07;;;;;;;8.17;7.47;;;;;;;;;;5134373;27;20440;-68
2023/07/21 03:32:34;;;;;;;9.00;8.20;;;;;;;;;;5134206;27;20449;-68
2023/07/21 03:35:04;;;;;;;9.50;8.47;;;;;;;;;;5134467;27;20473;-68
2023/07/21 03:37:34;;;;;;;9.07;8.30;;;;;;;;;;5133947;27;20438;-67
2023/07/21 03:40:02;;;;;;;9.53;8.63;;;;;;;;;;5133972;27;20422;-67
2023/07/21 03:42:29;;;;;;;9.00;8.10;;;;;;;;;;5134143;27;20444;-67
2023/07/21 03:44:58;;;;;;;9.70;8.87;;;;;;;;;;5136622;27;20451;-67
2023/07/21 03:47:25;;;;;;;9.07;8.27;;;;;;;;;;5138510;27;20462;-67
2023/07/21 03:49:52;;;;;;;9.63;8.73;;;;;;;;;;5138368;27;20441;-67
2023/07/21 03:52:20;;;;;;;9.37;8.53;;;;;;;;;;5138806;27;20463;-67
2023/07/21 03:54:47;;;;;;;10.10;9.10;;;;;;;;;;5138142;27;20468;-67
2023/07/21 03:57:14;;;;;;;9.17;8.37;;;;;;;;;;5137488;27;20448;-67
2023/07/21 03:59:42;;;;;;;9.27;8.47;;;;;;;;;;5137751;27;20474;-67
2023/07/21 04:02:11;;;;;;;10.40;9.40;;;;;;;;;;5138030;27;20806;-67
2023/07/21 04:04:38;;;;;;;10.80;9.83;;;;;;;;;;5137793;27;20492;-67
2023/07/21 04:07:07;;;;;;;9.77;9.07;;;;;;;;;;5137550;27;20444;-66
2023/07/21 04:09:34;;;;;;;10.20;9.40;;;;;;;;;;5137526;27;20442;-67
2023/07/21 04:12:02;;;;;;;9.80;8.90;;;;;;;;;;5137562;27;20922;-67
2023/07/21 04:14:30;;;;;;;11.37;8.80;;;;;;;;;;5137817;27;20526;-67
2023/07/21 04:16:57;;;;;;;10.10;9.10;;;;;;;;;;5137701;27;20469;-67
2023/07/21 04:19:26;;;;;;;11.87;9.63;;;;;;;;;;5137648;27;20441;-67
2023/07/21 04:21:53;;;;;;;11.23;10.03;;;;;;;;;;5137856;27;20541;-67
2023/07/21 04:24:21;;;;;;;11.23;10.33;;;;;;;;;;5137979;27;20466;-67
2023/07/21 04:26:48;;;;;;;10.57;9.57;;;;;;;;;;5137618;27;20449;-68
2023/07/21 04:29:15;;;;;;;11.50;10.40;;;;;;;;;;5137765;27;20447;-64
2023/07/21 04:31:42;;;;;;;12.00;10.90;;;;;;;;;;5137792;27;20462;-64
2023/07/21 04:34:08;;;;;;;12.10;11.07;;;;;;;;;;5137059;27;20479;-64
2023/07/21 04:36:37;;;;;;;11.23;10.23;;;;;;;;;;5137540;27;20443;-64
2023/07/21 04:39:04;;;;;;;12.17;10.83;;;;;;;;;;5137351;27;20451;-64
2023/07/21 04:41:32;;;;;;;12.43;11.20;;;;;;;;;;5137263;27;20437;-63
2023/07/21 04:43:59;;;;;;;12.43;11.20;;;;;;;;;;5137219;27;20797;-63
2023/07/21 04:46:26;;;;;;;12.37;11.27;;;;;;;;;;5137086;27;20486;-63
2023/07/21 04:48:55;;;;;;;12.27;11.20;;;;;;;;;;5136693;27;20449;-64
2023/07/21 04:51:22;;;;;;;12.80;11.50;;;;;;;;;;5137144;27;20438;-63
2023/07/21 04:53:51;;;;;;;12.23;11.03;;;;;;;;;;5136591;27;20487;-64
2023/07/21 04:56:18;;;;;;;12.63;11.53;;;;;;;;;;5137108;27;20461;-64
2023/07/21 04:58:45;;;;;;;12.23;11.03;;;;;;;;;;5136753;27;20836;-64
2023/07/21 05:01:15;;;;;;;11.90;10.90;;;;;;;;;;5137386;27;20798;-64
2023/07/21 05:03:43;;;;;;;11.43;10.47;;;;;;;;;;5137096;27;20432;-65
2023/07/21 05:06:10;;;;;;;12.23;11.17;;;;;;;;;;5136745;27;20433;-66
2023/07/21 05:08:38;;;;;;;10.90;10.03;;;;;;;;;;5136782;27;20456;-64
2023/07/21 05:11:09;;;;;;;12.23;11.13;;;;;;;;;;5136612;27;20437;-64
2023/07/21 05:13:37;;;;;;;12.10;10.90;;;;;;;;;;5136994;27;20783;-63
2023/07/21 05:16:04;;;;;;;10.83;9.93;;;;;;;;;;5136468;27;20915;-63
2023/07/21 05:18:32;;;;;;;11.93;10.90;;;;;;;;;;5136573;27;20479;-64
2023/07/21 05:20:59;;;;;;;13.03;11.20;;;;;;;;;;5136616;27;20438;-64
2023/07/21 05:23:26;;;;;;;12.57;11.23;;;;;;;;;;5136535;27;20437;-64
2023/07/21 05:26:00;;;;;;;12.37;11.13;;;;;;;;;;5136018;27;20539;-64
2023/07/21 05:28:28;;;;;;;11.50;10.50;;;;;;;;;;5136203;27;20445;-64
2023/07/21 05:30:56;;;;;;;12.50;11.27;;;;;;;;;;5136140;27;20548;-64
2023/07/21 05:33:23;;;;;;;14.17;10.57;;;;;;;;;;5136578;27;20451;-63
2023/07/21 05:35:50;;;;;;;11.30;10.50;;;;;;;;;;5135777;27;20484;-63
2023/07/21 05:38:17;;;;;;;13.40;11.03;;;;;;;;;;5135932;27;20917;-64
2023/07/21 05:40:44;;;;;;;12.07;10.80;;;;;;;;;;5136335;27;20794;-63
2023/07/21 05:43:12;;;;;;;11.03;10.13;;;;;;;;;;5136102;27;20521;-63
2023/07/21 05:45:41;;;;;;;11.23;10.30;;;;;;;;;;5135957;27;20440;-64
2023/07/21 05:48:09;;;;;;;11.53;10.63;;;;;;;;;;5136052;27;20452;-63
2023/07/21 05:50:37;;;;;;;13.93;12.63;;;;;;;;;;5135858;27;20441;-64
2023/07/21 05:53:05;;;;;;;13.30;12.07;;;;;;;;;;5135591;27;20427;-64
2023/07/21 05:55:32;;;;;;;12.80;11.57;;;;;;;;;;5135403;27;20495;-64
2023/07/21 05:58:00;;;;;;;13.00;11.77;;;;;;;;;;5135917;27;20887;-63
2023/07/21 06:00:27;;;;;;;12.70;11.50;;;;;;;;;;5136010;27;20475;-64
2023/07/21 06:02:56;;;;;;;12.20;11.10;;;;;;;;;;5135541;27;20442;-64
2023/07/21 06:05:23;;;;;;;13.10;11.80;;;;;;;;;;5135396;27;20960;-63
2023/07/21 06:07:52;;;;;;;14.87;11.87;;;;;;;;;;5135185;27;20545;-64
2023/07/21 06:10:19;;;;;;;12.70;11.60;;;;;;;;;;5136121;27;20858;-64
2023/07/21 06:12:46;;;;;;;12.50;10.10;;;;;;;;;;5135949;27;20521;-63
2023/07/21 06:15:13;;;;;;;12.20;11.10;;;;;;;;;;5136149;27;20491;-63
2023/07/21 06:17:41;;;;;;;14.43;13.03;;;;;;;;;;5135557;27;20444;-64
2023/07/21 06:20:12;;;;;;;12.30;11.27;;;;;;;;;;5135388;27;20451;-64
2023/07/21 06:22:39;;;;;;;13.03;11.93;;;;;;;;;;5136261;27;20422;-64
2023/07/21 06:25:06;;;;;;;12.30;11.10;;;;;;;;;;5135336;27;20440;-64
2023/07/21 06:27:34;;;;;;;11.40;10.30;;;;;;;;;;5134961;27;20918;-63
2023/07/21 06:30:01;;;;;;;12.50;11.20;;;;;;;;;;5135230;27;20473;-64
2023/07/21 06:32:28;;;;;;;12.70;11.43;;;;;;;;;;5135967;27;20475;-63
2023/07/21 06:34:55;;;;;;;12.70;11.60;;;;;;;;;;5135215;27;20485;-64
2023/07/21 06:37:24;;;;;;;12.50;11.40;;;;;;;;;;5134765;27;20482;-63
2023/07/21 06:39:52;;;;;;;15.07;11.53;;;;;;;;;;5135456;27;20447;-64
2023/07/21 06:42:19;;;;;;;13.67;12.37;;;;;;;;;;5135620;27;20476;-63
2023/07/21 06:44:46;;;;;;;12.87;11.57;;;;;;;;;;5135174;27;20812;-64
2023/07/21 06:47:14;;;;;;;12.40;11.23;;;;;;;;;;5134630;27;20961;-63
2023/07/21 06:49:41;;;;;;;11.90;10.67;;;;;;;;;;5134899;27;20446;-63
2023/07/21 06:52:09;;;;;;;12.00;10.90;;;;;;;;;;5134799;27;20441;-63
2023/07/21 06:54:38;;;;;;;13.00;11.60;;;;;;;;;;5134471;27;20545;-63
2023/07/21 06:57:06;;;;;;;11.90;10.80;;;;;;;;;;5134423;27;20532;-63
2023/07/21 06:59:34;;;;;;;11.70;10.60;;;;;;;;;;5134703;27;20512;-63
2023/07/21 07:02:01;;;;;;;12.90;10.30;;;;;;;;;;5134808;27;20463;-64
2023/07/21 07:04:29;;;;;;;11.80;10.47;;;;;;;;;;5134629;27;20448;-63
2023/07/21 07:06:56;;;;;;;11.53;10.60;;;;;;;;;;5134985;27;20531;-63
2023/07/21 07:09:23;;;;;;;11.33;10.33;;;;;;;;;;5134564;27;20474;-63
2023/07/21 07:11:52;;;;;;;12.27;11.07;;;;;;;;;;5134351;27;20531;-63
2023/07/21 07:14:19;;;;;;;16.60;10.13;;;;;;;;;;5135053;27;20647;-63
2023/07/21 07:16:46;;;;;;;10.53;9.20;;;;;;;;;;5134014;27;20449;-63
2023/07/21 07:19:14;;;;;;;16.50;11.00;;;;;;;;;;5133444;27;20452;-63
2023/07/21 07:21:41;;;;;;;10.00;9.17;;;;;;;;;;5133903;27;20909;-63
2023/07/21 07:24:08;;;;;;;10.13;9.13;;;;;;;;;;5134318;27;20462;-63
2023/07/21 07:26:35;;;;;;;10.03;9.03;;;;;;;;;;5134410;27;20448;-63
2023/07/21 07:29:04;;;;;;;11.13;9.23;;;;;;;;;;5134020;27;20455;-64
2023/07/21 07:31:32;;;;;;;10.50;9.40;;;;;;;;;;5134317;27;20442;-64
2023/07/21 07:33:59;;;;;;;8.93;8.13;;;;;;;;;;5134465;28;20437;-65
2023/07/21 07:36:26;;;;;;;8.63;7.90;;;;;;;;;;5134254;28;20487;-64
2023/07/21 07:38:53;;;;;;;9.07;6.53;;;;;;;;;;5134807;28;20522;-63
2023/07/21 07:41:20;;;;;;;7.70;7.00;;;;;;;;;;5134944;28;20792;-64
2023/07/21 07:43:48;;;;;;;8.40;7.60;;;;;;;;;;5134163;28;20468;-64
2023/07/21 07:46:17;;;;;;;8.47;7.60;;;;;;;;;;5134209;28;20441;-64
2023/07/21 07:48:45;;;;;;;8.33;7.63;;;;;;;;;;5133979;28;20440;-64
2023/07/21 07:51:12;;;;;;;7.00;6.20;;;;;;;;;;5133985;28;20441;-64
2023/07/21 07:53:39;;;;;;;7.80;7.10;;;;;;;;;;5134065;28;20527;-64
2023/07/21 07:56:06;;;;;;;10.80;6.67;;;;;;;;;;5133813;28;20479;-65
2023/07/21 07:58:34;;;;;;;7.23;6.53;;;;;;;;;;5133585;28;20444;-63
2023/07/21 08:01:01;;;;;;;6.77;6.03;;;;;;;;;;5133990;28;20497;-64
2023/07/21 08:03:29;;;;;;;7.60;6.90;;;;;;;;;;5133518;28;20449;-63
2023/07/21 08:05:56;;;;;;;6.80;6.23;;;;;;;;;;5133625;28;20654;-64
2023/07/21 08:08:24;;;;;;;8.30;6.93;;;;;;;;;;5133469;28;20438;-64
2023/07/21 08:10:51;;;;;;;7.00;6.40;;;;;;;;;;5133503;28;20440;-64
2023/07/21 08:13:18;;;;;;;7.33;6.77;;;;;;;;;;5133772;28;20948;-64
2023/07/21 08:15:46;;;;;;;8.13;5.30;;;;;;;;;;5133758;28;20485;-64
2023/07/21 08:18:13;;;;;;;6.30;5.70;;;;;;;;;;5133741;28;20433;-64
2023/07/21 08:20:43;;;;;;;6.20;5.70;;;;;;;;;;5133542;28;20457;-64
2023/07/21 08:23:10;;;;;;;5.93;5.43;;;;;;;;;;5133738;28;20499;-63
2023/07/21 08:25:37;;;;;;;4.73;4.40;;;;;;;;;;5133881;28;20448;-64
2023/07/21 08:28:05;;;;;;;4.80;4.40;;;;;;;;;;5133514;28;20442;-63
2023/07/21 08:30:32;;;;;;;5.37;4.40;;;;;;;;;;5135028;27;20438;-63
2023/07/21 08:33:00;;;;;;;9.03;5.80;;;;;;;;;;5136560;27;20933;-64
2023/07/21 08:35:28;;;;;;;5.10;4.67;;;;;;;;;;5137220;27;20473;-64
2023/07/21 08:37:57;;;;;;;5.23;4.83;;;;;;;;;;5137405;27;20429;-64
2023/07/21 08:40:24;;;;;;;5.57;4.80;;;;;;;;;;5137542;27;20449;-63
2023/07/21 08:42:51;;;;;;;4.63;4.33;;;;;;;;;;5136823;27;20927;-64
2023/07/21 08:45:20;;;;;;;8.17;5.33;;;;;;;;;;5137047;27;20437;-63
2023/07/21 08:47:48;;;;;;;5.23;4.83;;;;;;;;;;5136902;27;20993;-64
2023/07/21 08:50:17;;;;;;;5.40;4.67;;;;;;;;;;5136953;27;20937;-64
2023/07/21 08:52:44;;;;;;;5.50;5.00;;;;;;;;;;5136811;27;20502;-64
2023/07/21 08:55:13;;;;;;;4.57;4.17;;;;;;;;;;5137202;27;20487;-63
2023/07/21 08:57:40;;;;;;;5.73;5.30;;;;;;;;;;5137133;27;20529;-64
2023/07/21 09:00:10;;;;;;;4.90;4.50;;;;;;;;;;5137049;27;20462;-64
2023/07/21 09:02:41;;;;;;;4.70;4.40;;;;;;;;;;5137714;27;20474;-63
2023/07/21 09:05:09;;;;;;;4.40;4.10;;;;;;;;;;5136965;27;20473;-63
2023/07/21 09:07:40;;;;;;;4.27;3.83;;;;;;;;;;5136825;27;20455;-64
2023/07/21 09:10:07;;;;;;;4.67;3.93;;;;;;;;;;5137645;27;20452;-63
2023/07/21 09:12:39;;;;;;;3.80;3.40;;;;;;;;;;5136704;27;20464;-64
2023/07/21 09:15:10;;;;;;;4.23;3.93;;;;;;;;;;5136604;27;20549;-63
2023/07/21 09:17:41;;;;;;;3.70;3.47;;;;;;;;;;5136909;27;20434;-64
2023/07/21 09:20:10;;;;;;;4.40;4.00;;;;;;;;;;5136759;27;20426;-64
2023/07/21 09:22:37;;;;;;;4.77;4.37;;;;;;;;;;5137108;27;20444;-64
2023/07/21 09:25:04;;;;;;;4.20;3.80;;;;;;;;;;5136582;27;20437;-63
2023/07/21 09:27:33;;;;;;;4.10;3.70;;;;;;;;;;5136147;27;20442;-64
2023/07/21 09:30:02;;;;;;;4.80;3.93;;;;;;;;;;5136157;27;20438;-63
2023/07/21 09:32:29;;;;;;;4.77;4.37;;;;;;;;;;5136078;27;20956;-64
2023/07/21 09:34:58;;;;;;;4.23;3.90;;;;;;;;;;5136470;27;20441;-64
2023/07/21 09:37:26;;;;;;;4.20;3.80;;;;;;;;;;5136248;27;20798;-64
2023/07/21 09:39:56;;;;;;;7.23;3.83;;;;;;;;;;5136267;27;20470;-64
2023/07/21 09:42:24;;;;;;;4.00;3.60;;;;;;;;;;5136537;27;20448;-63
2023/07/21 09:44:52;;;;;;;6.53;4.03;;;;;;;;;;5136152;27;20444;-63
2023/07/21 09:47:21;;;;;;;3.93;3.63;;;;;;;;;;5137225;27;20438;-63
2023/07/21 09:49:49;;;;;;;7.20;3.20;;;;;;;;;;5136053;27;20494;-63
2023/07/21 09:52:17;;;;;;;3.60;3.33;;;;;;;;;;5136075;27;20457;-63
2023/07/21 09:54:46;;;;;;;3.87;3.57;;;;;;;;;;5135552;27;20442;-64
2023/07/21 09:57:15;;;;;;;8.00;4.03;;;;;;;;;;5135997;27;20474;-63
2023/07/21 09:59:45;;;;;;;3.70;3.20;;;;;;;;;;5135611;27;20469;-63
2023/07/21 10:02:13;;;;;;;3.10;2.90;;;;;;;;;;5136104;27;20740;-63
2023/07/21 10:04:42;;;;;;;3.80;3.40;;;;;;;;;;5135213;27;20522;-63
2023/07/21 10:07:10;;;;;;;3.90;3.50;;;;;;;;;;5135692;27;20486;-63
2023/07/21 10:09:37;;;;;;;4.80;4.37;;;;;;;;;;5135577;27;20438;-63
2023/07/21 10:12:09;;;;;;;5.03;4.47;;;;;;;;;;5135614;27;20443;-63
2023/07/21 10:14:38;;;;;;;3.73;3.43;;;;;;;;;;5135741;27;20488;-63
2023/07/21 10:17:06;;;;;;;3.50;3.20;;;;;;;;;;5135452;27;20473;-63
2023/07/21 10:19:40;;;;;;;3.60;3.30;;;;;;;;;;5134982;27;20946;-63
2023/07/21 10:22:10;;;;;;;3.37;3.00;;;;;;;;;;5135802;27;20426;-63
2023/07/21 10:24:43;;;;;;;3.10;2.90;;;;;;;;;;5135653;27;20422;-63
2023/07/21 10:27:10;;;;;;;4.37;3.60;;;;;;;;;;5135655;27;20425;-63
2023/07/21 10:29:38;;;;;;;3.77;3.30;;;;;;;;;;5135558;27;20446;-63
2023/07/21 10:32:06;;;;;;;3.70;2.97;;;;;;;;;;5135161;27;20445;-63
2023/07/21 10:34:34;;;;;;;4.00;2.77;;;;;;;;;;5134746;27;20477;-63
2023/07/21 10:37:04;;;;;;;3.97;2.90;;;;;;;;;;5135577;27;20474;-63
2023/07/21 10:39:33;;;;;;;2.67;2.47;;;;;;;;;;5135054;27;20945;-63
2023/07/21 10:42:03;;;;;;;5.83;2.30;;;;;;;;;;5135659;27;20515;-63
2023/07/21 10:44:34;;;;;;;2.20;2.10;;;;;;;;;;5135298;27;20434;-63
2023/07/21 10:47:01;;;;;;;5.27;2.70;;;;;;;;;;5134625;27;20439;-63
2023/07/21 10:49:28;;;;;;;3.30;3.00;;;;;;;;;;5134363;27;20450;-64
2023/07/21 10:51:55;;;;;;;4.27;3.90;;;;;;;;;;5134415;27;20443;-63
2023/07/21 10:54:23;;;;;;;2.40;2.20;;;;;;;;;;5134788;27;20523;-63
2023/07/21 10:56:52;;;;;;;3.07;2.77;;;;;;;;;;5134746;27;20468;-63
2023/07/21 10:59:19;;;;;;;2.57;2.37;;;;;;;;;;5134890;27;20467;-63
2023/07/21 11:01:47;;;;;;;3.13;2.93;;;;;;;;;;5134322;27;20524;-63
2023/07/21 11:04:15;;;;;;;3.20;2.90;;;;;;;;;;5134552;27;20442;-64
2023/07/21 11:06:42;;;;;;;3.07;2.83;;;;;;;;;;5134831;27;20449;-63
2023/07/21 11:09:11;;;;;;;3.03;2.70;;;;;;;;;;5134145;27;20933;-63
2023/07/21 11:11:39;;;;;;;4.80;2.80;;;;;;;;;;5134318;27;20440;-63
2023/07/21 11:14:10;;;;;;;3.17;2.87;;;;;;;;;;5134591;27;20438;-64
2023/07/21 11:16:42;;;;;;;3.10;2.90;;;;;;;;;;5134443;27;20465;-64
2023/07/21 11:19:09;;;;;;;4.40;2.73;;;;;;;;;;5134646;27;20759;-64
2023/07/21 11:21:37;;;;;;;3.70;3.40;;;;;;;;;;5134979;27;20522;-63
2023/07/21 11:24:04;;;;;;;7.07;3.13;;;;;;;;;;5134572;27;20483;-63
2023/07/21 11:26:31;;;;;;;3.30;2.60;;;;;;;;;;5134785;27;20533;-63
2023/07/21 11:29:00;;;;;;;5.77;2.47;;;;;;;;;;5134892;27;20454;-67
2023/07/21 11:31:32;;;;;;;2.73;2.53;;;;;;;;;;5134308;27;20439;-66
2023/07/21 11:34:00;;;;;;;2.90;2.70;;;;;;;;;;5134752;27;20423;-67
2023/07/21 11:36:29;;;;;;;3.00;2.80;;;;;;;;;;5134071;27;20478;-66
2023/07/21 11:38:58;;;;;;;2.80;2.60;;;;;;;;;;5134435;28;20448;-67
2023/07/21 11:41:36;;;;;;;2.70;2.50;;;;;;;;;;5134213;28;20446;-69
2023/07/21 11:44:06;;;;;;;3.20;2.90;;;;;;;;;;5134142;28;20434;-67
2023/07/21 11:46:35;;;;;;;3.87;3.57;;;;;;;;;;5133895;28;20460;-67
2023/07/21 11:49:10;;;;;;;2.80;2.50;;;;;;;;;;5133205;28;20449;-67
2023/07/21 11:51:43;;;;;;;3.87;2.90;;;;;;;;;;5133741;28;20437;-67
2023/07/21 11:54:19;;;;;;;4.37;3.00;;;;;;;;;;5133940;28;20505;-67
2023/07/21 11:56:46;;;;;;;6.23;3.60;;;;;;;;;;5134043;28;20461;-68
2023/07/21 11:59:13;;;;;;;5.37;3.60;;;;;;;;;;5133363;28;20484;-68
2023/07/21 12:01:42;;;;;;;6.80;4.07;;;;;;;;;;5133853;28;20532;-68
2023/07/21 12:04:09;;;;;;;11.60;5.30;;;;;;;;;;5133954;27;20940;-68
2023/07/21 12:06:36;;;;;;;5.87;5.27;;;;;;;;;;5137217;27;20534;-68
2023/07/21 12:09:05;;;;;;;8.87;5.97;;;;;;;;;;5138271;27;20435;-69
2023/07/21 12:11:32;;;;;;;6.90;5.30;;;;;;;;;;5137510;27;20437;-69
2023/07/21 12:14:00;;;;;;;12.93;6.83;;;;;;;;;;5138106;27;20544;-69
2023/07/21 12:16:27;;;;;;;8.83;7.10;;;;;;;;;;5137499;27;20484;-70
2023/07/21 12:18:55;;;;;;;7.93;6.73;;;;;;;;;;5136532;27;20440;-69
2023/07/21 12:21:23;;;;;;;6.03;5.53;;;;;;;;;;5136488;27;20926;-69
2023/07/21 12:23:50;;;;;;;5.90;5.40;;;;;;;;;;5137220;27;20441;-69
2023/07/21 12:26:17;;;;;;;10.33;5.90;;;;;;;;;;5136441;27;20476;-69
2023/07/21 12:28:45;;;;;;;8.00;7.40;;;;;;;;;;5137208;27;20452;-69
2023/07/21 12:31:12;;;;;;;7.20;5.50;;;;;;;;;;5137071;27;20466;-69
2023/07/21 12:33:41;;;;;;;7.10;6.50;;;;;;;;;;5136299;27;20443;-69
2023/07/21 12:36:11;;;;;;;8.20;7.20;;;;;;;;;;5136694;27;20489;-69
2023/07/21 12:38:38;;;;;;;7.07;6.40;;;;;;;;;;5136382;27;20507;-68
2023/07/21 12:41:05;;;;;;;6.80;5.60;;;;;;;;;;5136703;27;20434;-67
2023/07/21 12:43:33;;;;;;;6.70;6.13;;;;;;;;;;5137105;27;20439;-68
2023/07/21 12:46:00;;;;;;;7.73;7.10;;;;;;;;;;5137012;27;20532;-69
2023/07/21 12:48:28;;;;;;;6.30;5.70;;;;;;;;;;5136574;27;20441;-69
2023/07/21 12:50:55;;;;;;;6.87;6.27;;;;;;;;;;5136971;27;20532;-69
2023/07/21 12:53:24;;;;;;;5.93;5.53;;;;;;;;;;5136761;27;20498;-69
2023/07/21 12:55:51;;;;;;;5.27;4.87;;;;;;;;;;5137106;27;20442;-69
2023/07/21 12:58:19;;;;;;;6.27;5.77;;;;;;;;;;5135981;27;20498;-69
2023/07/21 13:00:46;;;;;;;6.50;5.90;;;;;;;;;;5136261;27;20474;-68
2023/07/21 13:03:13;;;;;;;4.67;4.10;;;;;;;;;;5136952;27;20486;-68
2023/07/21 13:05:41;;;;;;;4.83;4.37;;;;;;;;;;5137007;27;20440;-68
2023/07/21 13:08:08;;;;;;;5.10;4.70;;;;;;;;;;5136768;27;20493;-68
2023/07/21 13:10:37;;;;;;;5.33;4.80;;;;;;;;;;5136792;27;20438;-69
2023/07/21 13:13:05;;;;;;;4.20;3.90;;;;;;;;;;5136312;27;20523;-68
2023/07/21 13:15:32;;;;;;;5.43;5.03;;;;;;;;;;5136231;27;20446;-69
2023/07/21 13:17:59;;;;;;;4.33;3.93;;;;;;;;;;5134872;27;20932;-69
2023/07/21 13:20:27;;;;;;;4.77;4.37;;;;;;;;;;5135945;27;20430;-68
2023/07/21 13:22:54;;;;;;;5.30;3.70;;;;;;;;;;5136533;27;20443;-69
2023/07/21 13:25:21;;;;;;;4.63;3.93;;;;;;;;;;5136683;27;20445;-68
2023/07/21 13:27:50;;;;;;;4.43;4.03;;;;;;;;;;5135927;27;20525;-69
2023/07/21 13:30:17;;;;;;;5.10;3.97;;;;;;;;;;5136061;27;20439;-69
2023/07/21 13:32:44;;;;;;;4.77;4.37;;;;;;;;;;5136276;27;20449;-69
2023/07/21 13:35:11;;;;;;;4.43;4.00;;;;;;;;;;5136211;27;20435;-69
2023/07/21 13:37:38;;;;;;;8.60;4.50;;;;;;;;;;5135369;27;21000;-69
2023/07/21 13:40:07;;;;;;;6.30;4.70;;;;;;;;;;5135067;27;20922;-69
2023/07/21 13:42:35;;;;;;;5.90;4.53;;;;;;;;;;5135902;27;20510;-69
2023/07/21 13:45:03;;;;;;;6.83;4.50;;;;;;;;;;5135716;27;20441;-69
2023/07/21 13:47:32;;;;;;;4.30;3.90;;;;;;;;;;5136401;27;20517;-69
2023/07/21 13:49:59;;;;;;;5.53;4.50;;;;;;;;;;5135530;27;20444;-69
2023/07/21 13:52:27;;;;;;;3.93;3.73;;;;;;;;;;5135726;27;20446;-69
2023/07/21 13:54:54;;;;;;;4.93;4.13;;;;;;;;;;5136042;27;20467;-69
2023/07/21 13:57:21;;;;;;;4.20;3.83;;;;;;;;;;5135018;27;20983;-69
2023/07/21 13:59:48;;;;;;;4.80;4.00;;;;;;;;;;5134433;27;21095;-69
2023/07/21 14:02:18;;;;;;;4.60;4.20;;;;;;;;;;5134873;27;20804;-69
2023/07/21 14:04:45;;;;;;;3.57;3.37;;;;;;;;;;5135400;27;20522;-69
2023/07/21 14:07:12;;;;;;;4.13;3.83;;;;;;;;;;5135278;27;20443;-69
2023/07/21 14:09:40;;;;;;;4.57;4.17;;;;;;;;;;5135308;27;20452;-69
2023/07/21 14:12:07;;;;;;;4.50;4.10;;;;;;;;;;5135135;27;20445;-69
2023/07/21 14:14:34;;;;;;;4.03;3.70;;;;;;;;;;5135687;27;20839;-69
2023/07/21 14:17:01;;;;;;;4.00;3.63;;;;;;;;;;5135528;27;20502;-69
2023/07/21 14:19:30;;;;;;;4.23;3.73;;;;;;;;;;5135419;27;20438;-69
2023/07/21 14:21:58;;;;;;;4.20;3.70;;;;;;;;;;5135021;27;20525;-69
2023/07/21 14:24:25;;;;;;;4.60;3.70;;;;;;;;;;5135087;27;20449;-69
2023/07/21 14:26:53;;;;;;;4.43;4.07;;;;;;;;;;5135188;27;20920;-69
2023/07/21 14:29:20;;;;;;;4.90;3.80;;;;;;;;;;5135355;27;20450;-70
2023/07/21 14:31:47;;;;;;;6.17;3.50;;;;;;;;;;5134808;27;20444;-68
2023/07/21 14:34:15;;;;;;;4.33;3.93;;;;;;;;;;5135160;27;20804;-69
2023/07/21 14:36:43;;;;;;;4.53;4.00;;;;;;;;;;5134905;27;20460;-68
2023/07/21 14:39:12;;;;;;;4.03;3.63;;;;;;;;;;5134752;27;20446;-70
2023/07/21 14:41:39;;;;;;;5.47;4.50;;;;;;;;;;5134959;27;20442;-69